sensor_id;sensor_type;location;lat;lon;timestamp;P1;durP1;ratioP1;P2;durP2;ratioP2
17596;SDS011;8917;50.942;6.946;2023-09-18T00:00:29;8.18;;;4.90;;
17596;SDS011;8917;50.942;6.946;2023-09-18T00:02:57;8.88;;;4.90;;
17596;SDS011;8917;50.942;6.946;2023-09-18T00:05:27;7.60;;;4.93;;
17596;SDS011;8917;50.942;6.946;2023-09-18T00:07:54;7.22;;;4.82;;
17596;SDS011;8917;50.942;6.946;2023-09-18T00:10:21;6.53;;;4.80;;
17596;SDS011;8917;50.942;6.946;2023-09-18T00:12:49;7.75;;;5.20;;
17596;SDS011;8917;50.942;6.946;2023-09-18T00:15:18;6.07;;;4.55;;
17596;SDS011;8917;50.942;6.946;2023-09-18T00:17:45;7.70;;;5.55;;
17596;SDS011;8917;50.942;6.946;2023-09-18T00:20:11;7.65;;;4.90;;
17596;SDS011;8917;50.942;6.946;2023-09-18T00:22:38;7.97;;;4.70;;
17596;SDS011;8917;50.942;6.946;2023-09-18T00:25:05;8.63;;;5.15;;
17596;SDS011;8917;50.942;6.946;2023-09-18T00:27:33;6.25;;;4.68;;
17596;SDS011;8917;50.942;6.946;2023-09-18T00:30:01;7.55;;;4.65;;
17596;SDS011;8917;50.942;6.946;2023-09-18T00:32:29;7.10;;;4.90;;
17596;SDS011;8917;50.942;6.946;2023-09-18T00:34:56;6.72;;;4.57;;
17596;SDS011;8917;50.942;6.946;2023-09-18T00:37:23;7.45;;;4.22;;
17596;SDS011;8917;50.942;6.946;2023-09-18T00:39:50;8.93;;;4.72;;
17596;SDS011;8917;50.942;6.946;2023-09-18T00:42:17;7.43;;;4.32;;
17596;SDS011;8917;50.942;6.946;2023-09-18T00:44:44;7.53;;;4.63;;
17596;SDS011;8917;50.942;6.946;2023-09-18T00:47:11;7.03;;;4.40;;
17596;SDS011;8917;50.942;6.946;2023-09-18T00:49:41;8.63;;;4.82;;
17596;SDS011;8917;50.942;6.946;2023-09-18T00:52:10;10.15;;;4.53;;
17596;SDS011;8917;50.942;6.946;2023-09-18T00:54:38;7.85;;;4.90;;
17596;SDS011;8917;50.942;6.946;2023-09-18T00:57:06;8.63;;;4.70;;
17596;SDS011;8917;50.942;6.946;2023-09-18T00:59:35;6.25;;;4.72;;
17596;SDS011;8917;50.942;6.946;2023-09-18T01:02:02;8.13;;;4.75;;
17596;SDS011;8917;50.942;6.946;2023-09-18T01:04:29;5.45;;;4.93;;
17596;SDS011;8917;50.942;6.946;2023-09-18T01:06:59;5.40;;;4.75;;
17596;SDS011;8917;50.942;6.946;2023-09-18T01:09:28;8.13;;;5.00;;
17596;SDS011;8917;50.942;6.946;2023-09-18T01:11:58;5.97;;;4.30;;
17596;SDS011;8917;50.942;6.946;2023-09-18T01:14:31;7.65;;;4.75;;
17596;SDS011;8917;50.942;6.946;2023-09-18T01:17:01;5.65;;;4.40;;
17596;SDS011;8917;50.942;6.946;2023-09-18T01:19:34;10.73;;;4.75;;
17596;SDS011;8917;50.942;6.946;2023-09-18T01:22:04;8.32;;;4.72;;
17596;SDS011;8917;50.942;6.946;2023-09-18T01:24:33;5.63;;;4.35;;
17596;SDS011;8917;50.942;6.946;2023-09-18T01:27:01;7.88;;;4.97;;
17596;SDS011;8917;50.942;6.946;2023-09-18T01:29:27;7.60;;;4.80;;
17596;SDS011;8917;50.942;6.946;2023-09-18T01:31:54;6.40;;;4.20;;
17596;SDS011;8917;50.942;6.946;2023-09-18T01:34:23;7.85;;;4.97;;
17596;SDS011;8917;50.942;6.946;2023-09-18T01:36:53;7.93;;;4.75;;
17596;SDS011;8917;50.942;6.946;2023-09-18T01:39:22;7.72;;;4.85;;
17596;SDS011;8917;50.942;6.946;2023-09-18T01:41:53;7.18;;;4.72;;
17596;SDS011;8917;50.942;6.946;2023-09-18T01:44:21;9.35;;;4.75;;
17596;SDS011;8917;50.942;6.946;2023-09-18T01:46:48;5.88;;;4.28;;
17596;SDS011;8917;50.942;6.946;2023-09-18T01:49:16;7.45;;;4.40;;
17596;SDS011;8917;50.942;6.946;2023-09-18T01:51:52;7.00;;;4.18;;
17596;SDS011;8917;50.942;6.946;2023-09-18T01:54:19;8.35;;;4.60;;
17596;SDS011;8917;50.942;6.946;2023-09-18T01:56:45;5.00;;;4.45;;
17596;SDS011;8917;50.942;6.946;2023-09-18T01:59:14;9.20;;;5.00;;
17596;SDS011;8917;50.942;6.946;2023-09-18T02:01:41;6.68;;;4.55;;
17596;SDS011;8917;50.942;6.946;2023-09-18T02:04:08;5.63;;;3.92;;
17596;SDS011;8917;50.942;6.946;2023-09-18T02:06:35;9.13;;;5.03;;
17596;SDS011;8917;50.942;6.946;2023-09-18T02:09:01;7.45;;;4.68;;
17596;SDS011;8917;50.942;6.946;2023-09-18T02:11:29;8.98;;;4.78;;
17596;SDS011;8917;50.942;6.946;2023-09-18T02:13:56;4.63;;;4.07;;
17596;SDS011;8917;50.942;6.946;2023-09-18T02:16:24;7.03;;;5.07;;
17596;SDS011;8917;50.942;6.946;2023-09-18T02:18:54;7.45;;;4.70;;
17596;SDS011;8917;50.942;6.946;2023-09-18T02:21:21;5.45;;;4.38;;
17596;SDS011;8917;50.942;6.946;2023-09-18T02:23:49;6.70;;;4.45;;
17596;SDS011;8917;50.942;6.946;2023-09-18T02:26:16;7.63;;;4.70;;
17596;SDS011;8917;50.942;6.946;2023-09-18T02:28:43;6.60;;;4.55;;
17596;SDS011;8917;50.942;6.946;2023-09-18T02:31:10;5.20;;;4.22;;
17596;SDS011;8917;50.942;6.946;2023-09-18T02:33:39;6.07;;;4.55;;
17596;SDS011;8917;50.942;6.946;2023-09-18T02:36:07;8.27;;;4.75;;
17596;SDS011;8917;50.942;6.946;2023-09-18T02:38:34;9.27;;;5.13;;
17596;SDS011;8917;50.942;6.946;2023-09-18T02:41:01;7.00;;;4.97;;
17596;SDS011;8917;50.942;6.946;2023-09-18T02:43:28;5.43;;;4.53;;
17596;SDS011;8917;50.942;6.946;2023-09-18T02:45:55;6.95;;;4.50;;
17596;SDS011;8917;50.942;6.946;2023-09-18T02:48:21;8.55;;;4.63;;
17596;SDS011;8917;50.942;6.946;2023-09-18T02:50:50;7.28;;;4.43;;
17596;SDS011;8917;50.942;6.946;2023-09-18T02:53:17;7.93;;;4.88;;
17596;SDS011;8917;50.942;6.946;2023-09-18T02:55:45;7.68;;;5.45;;
17596;SDS011;8917;50.942;6.946;2023-09-18T02:58:12;7.85;;;4.90;;
17596;SDS011;8917;50.942;6.946;2023-09-18T03:00:40;9.52;;;4.75;;
17596;SDS011;8917;50.942;6.946;2023-09-18T03:03:08;7.50;;;4.65;;
17596;SDS011;8917;50.942;6.946;2023-09-18T03:05:35;7.50;;;4.53;;
17596;SDS011;8917;50.942;6.946;2023-09-18T03:08:04;6.82;;;4.85;;
17596;SDS011;8917;50.942;6.946;2023-09-18T03:10:32;9.05;;;5.05;;
17596;SDS011;8917;50.942;6.946;2023-09-18T03:13:00;5.72;;;4.65;;
17596;SDS011;8917;50.942;6.946;2023-09-18T03:15:27;7.70;;;4.38;;
17596;SDS011;8917;50.942;6.946;2023-09-18T03:17:55;8.05;;;5.07;;
17596;SDS011;8917;50.942;6.946;2023-09-18T03:20:23;6.47;;;4.32;;
17596;SDS011;8917;50.942;6.946;2023-09-18T03:22:50;6.25;;;4.82;;
17596;SDS011;8917;50.942;6.946;2023-09-18T03:25:18;8.68;;;4.60;;
17596;SDS011;8917;50.942;6.946;2023-09-18T03:27:45;10.50;;;4.78;;
17596;SDS011;8917;50.942;6.946;2023-09-18T03:30:12;8.90;;;5.40;;
17596;SDS011;8917;50.942;6.946;2023-09-18T03:32:40;6.32;;;4.90;;
17596;SDS011;8917;50.942;6.946;2023-09-18T03:35:07;5.65;;;4.38;;
17596;SDS011;8917;50.942;6.946;2023-09-18T03:37:40;7.13;;;5.07;;
17596;SDS011;8917;50.942;6.946;2023-09-18T03:40:08;6.70;;;4.90;;
17596;SDS011;8917;50.942;6.946;2023-09-18T03:42:37;9.05;;;5.78;;
17596;SDS011;8917;50.942;6.946;2023-09-18T03:45:05;7.70;;;5.20;;
17596;SDS011;8917;50.942;6.946;2023-09-18T03:47:33;6.47;;;4.30;;
17596;SDS011;8917;50.942;6.946;2023-09-18T03:50:00;7.38;;;4.60;;
17596;SDS011;8917;50.942;6.946;2023-09-18T03:52:27;8.05;;;4.40;;
17596;SDS011;8917;50.942;6.946;2023-09-18T03:54:54;9.15;;;3.97;;
17596;SDS011;8917;50.942;6.946;2023-09-18T03:57:21;6.95;;;4.47;;
17596;SDS011;8917;50.942;6.946;2023-09-18T03:59:49;6.72;;;4.15;;
17596;SDS011;8917;50.942;6.946;2023-09-18T04:02:16;5.80;;;4.15;;
17596;SDS011;8917;50.942;6.946;2023-09-18T04:04:43;13.23;;;4.80;;
17596;SDS011;8917;50.942;6.946;2023-09-18T04:07:10;9.60;;;4.28;;
17596;SDS011;8917;50.942;6.946;2023-09-18T04:09:41;8.75;;;4.60;;
17596;SDS011;8917;50.942;6.946;2023-09-18T04:12:08;9.68;;;4.30;;
17596;SDS011;8917;50.942;6.946;2023-09-18T04:14:35;7.60;;;4.32;;
17596;SDS011;8917;50.942;6.946;2023-09-18T04:17:03;9.82;;;4.32;;
17596;SDS011;8917;50.942;6.946;2023-09-18T04:19:30;6.05;;;4.15;;
17596;SDS011;8917;50.942;6.946;2023-09-18T04:21:57;8.95;;;4.13;;
17596;SDS011;8917;50.942;6.946;2023-09-18T04:24:25;11.07;;;4.00;;
17596;SDS011;8917;50.942;6.946;2023-09-18T04:26:52;12.00;;;4.40;;
17596;SDS011;8917;50.942;6.946;2023-09-18T04:29:19;5.72;;;4.07;;
17596;SDS011;8917;50.942;6.946;2023-09-18T04:31:46;10.82;;;3.95;;
17596;SDS011;8917;50.942;6.946;2023-09-18T04:34:14;10.88;;;4.55;;
17596;SDS011;8917;50.942;6.946;2023-09-18T04:36:41;5.85;;;3.85;;
17596;SDS011;8917;50.942;6.946;2023-09-18T04:39:09;8.55;;;4.20;;
17596;SDS011;8917;50.942;6.946;2023-09-18T04:41:36;11.35;;;3.78;;
17596;SDS011;8917;50.942;6.946;2023-09-18T04:44:04;7.65;;;4.18;;
17596;SDS011;8917;50.942;6.946;2023-09-18T04:46:32;6.97;;;4.10;;
17596;SDS011;8917;50.942;6.946;2023-09-18T04:48:59;13.35;;;4.50;;
17596;SDS011;8917;50.942;6.946;2023-09-18T04:51:30;8.55;;;4.85;;
17596;SDS011;8917;50.942;6.946;2023-09-18T04:53:57;10.00;;;4.25;;
17596;SDS011;8917;50.942;6.946;2023-09-18T04:56:24;9.15;;;4.28;;
17596;SDS011;8917;50.942;6.946;2023-09-18T04:58:52;9.98;;;4.35;;
17596;SDS011;8917;50.942;6.946;2023-09-18T05:01:19;9.10;;;3.95;;
17596;SDS011;8917;50.942;6.946;2023-09-18T05:03:46;9.07;;;3.92;;
17596;SDS011;8917;50.942;6.946;2023-09-18T05:06:13;8.25;;;4.30;;
17596;SDS011;8917;50.942;6.946;2023-09-18T05:08:43;10.05;;;4.32;;
17596;SDS011;8917;50.942;6.946;2023-09-18T05:11:10;12.52;;;3.88;;
17596;SDS011;8917;50.942;6.946;2023-09-18T05:13:37;9.15;;;4.65;;
17596;SDS011;8917;50.942;6.946;2023-09-18T05:16:04;13.43;;;4.68;;
17596;SDS011;8917;50.942;6.946;2023-09-18T05:18:31;7.80;;;3.95;;
17596;SDS011;8917;50.942;6.946;2023-09-18T05:20:58;8.52;;;3.90;;
17596;SDS011;8917;50.942;6.946;2023-09-18T05:23:24;8.05;;;4.70;;
17596;SDS011;8917;50.942;6.946;2023-09-18T05:25:53;11.68;;;4.22;;
17596;SDS011;8917;50.942;6.946;2023-09-18T05:28:20;11.10;;;4.70;;
17596;SDS011;8917;50.942;6.946;2023-09-18T05:30:47;8.48;;;3.85;;
17596;SDS011;8917;50.942;6.946;2023-09-18T05:33:14;10.60;;;4.57;;
17596;SDS011;8917;50.942;6.946;2023-09-18T05:35:41;10.43;;;4.25;;
17596;SDS011;8917;50.942;6.946;2023-09-18T05:38:09;8.13;;;4.18;;
17596;SDS011;8917;50.942;6.946;2023-09-18T05:40:38;8.18;;;4.25;;
17596;SDS011;8917;50.942;6.946;2023-09-18T05:43:06;10.48;;;4.07;;
17596;SDS011;8917;50.942;6.946;2023-09-18T05:45:33;10.18;;;3.97;;
17596;SDS011;8917;50.942;6.946;2023-09-18T05:48:00;7.63;;;4.10;;
17596;SDS011;8917;50.942;6.946;2023-09-18T05:50:29;6.95;;;3.63;;
17596;SDS011;8917;50.942;6.946;2023-09-18T05:52:56;12.23;;;4.22;;
17596;SDS011;8917;50.942;6.946;2023-09-18T05:55:25;9.15;;;4.03;;
17596;SDS011;8917;50.942;6.946;2023-09-18T05:57:53;7.47;;;3.53;;
17596;SDS011;8917;50.942;6.946;2023-09-18T06:00:21;5.05;;;3.60;;
17596;SDS011;8917;50.942;6.946;2023-09-18T06:02:48;8.75;;;3.97;;
17596;SDS011;8917;50.942;6.946;2023-09-18T06:05:16;10.55;;;4.07;;
17596;SDS011;8917;50.942;6.946;2023-09-18T06:07:46;7.32;;;3.55;;
17596;SDS011;8917;50.942;6.946;2023-09-18T06:10:13;7.93;;;3.78;;
17596;SDS011;8917;50.942;6.946;2023-09-18T06:12:41;4.88;;;2.92;;
17596;SDS011;8917;50.942;6.946;2023-09-18T06:15:08;6.05;;;3.15;;
17596;SDS011;8917;50.942;6.946;2023-09-18T06:17:38;9.65;;;3.40;;
17596;SDS011;8917;50.942;6.946;2023-09-18T06:20:06;8.30;;;2.97;;
17596;SDS011;8917;50.942;6.946;2023-09-18T06:22:35;5.53;;;2.90;;
17596;SDS011;8917;50.942;6.946;2023-09-18T06:25:04;6.30;;;3.25;;
17596;SDS011;8917;50.942;6.946;2023-09-18T06:27:33;6.10;;;2.90;;
17596;SDS011;8917;50.942;6.946;2023-09-18T06:30:01;4.28;;;2.90;;
17596;SDS011;8917;50.942;6.946;2023-09-18T06:32:27;7.18;;;2.85;;
17596;SDS011;8917;50.942;6.946;2023-09-18T06:34:56;5.40;;;2.70;;
17596;SDS011;8917;50.942;6.946;2023-09-18T06:37:23;6.40;;;2.60;;
17596;SDS011;8917;50.942;6.946;2023-09-18T06:39:50;6.22;;;2.70;;
17596;SDS011;8917;50.942;6.946;2023-09-18T06:42:17;5.75;;;2.85;;
17596;SDS011;8917;50.942;6.946;2023-09-18T06:44:44;6.25;;;3.25;;
17596;SDS011;8917;50.942;6.946;2023-09-18T06:47:11;9.50;;;2.80;;
17596;SDS011;8917;50.942;6.946;2023-09-18T06:49:39;5.03;;;2.83;;
17596;SDS011;8917;50.942;6.946;2023-09-18T06:52:09;5.93;;;2.85;;
17596;SDS011;8917;50.942;6.946;2023-09-18T06:54:36;7.72;;;3.00;;
17596;SDS011;8917;50.942;6.946;2023-09-18T06:57:03;7.90;;;2.70;;
17596;SDS011;8917;50.942;6.946;2023-09-18T06:59:30;4.75;;;3.28;;
17596;SDS011;8917;50.942;6.946;2023-09-18T07:01:58;4.70;;;2.80;;
17596;SDS011;8917;50.942;6.946;2023-09-18T07:04:26;5.25;;;2.35;;
17596;SDS011;8917;50.942;6.946;2023-09-18T07:06:53;3.72;;;2.30;;
17596;SDS011;8917;50.942;6.946;2023-09-18T07:09:22;6.60;;;2.35;;
17596;SDS011;8917;50.942;6.946;2023-09-18T07:11:51;5.03;;;2.45;;
17596;SDS011;8917;50.942;6.946;2023-09-18T07:14:17;5.20;;;2.28;;
17596;SDS011;8917;50.942;6.946;2023-09-18T07:16:43;5.43;;;1.83;;
17596;SDS011;8917;50.942;6.946;2023-09-18T07:19:10;7.45;;;2.25;;
17596;SDS011;8917;50.942;6.946;2023-09-18T07:21:41;6.40;;;2.28;;
17596;SDS011;8917;50.942;6.946;2023-09-18T07:24:09;7.35;;;2.20;;
17596;SDS011;8917;50.942;6.946;2023-09-18T07:26:44;4.40;;;1.80;;
17596;SDS011;8917;50.942;6.946;2023-09-18T07:29:12;6.65;;;2.13;;
17596;SDS011;8917;50.942;6.946;2023-09-18T07:31:40;5.22;;;2.33;;
17596;SDS011;8917;50.942;6.946;2023-09-18T07:34:07;4.93;;;2.08;;
17596;SDS011;8917;50.942;6.946;2023-09-18T07:36:34;3.67;;;2.00;;
17596;SDS011;8917;50.942;6.946;2023-09-18T07:39:01;4.07;;;1.98;;
17596;SDS011;8917;50.942;6.946;2023-09-18T07:41:29;7.05;;;2.40;;
17596;SDS011;8917;50.942;6.946;2023-09-18T07:43:57;4.00;;;1.70;;
17596;SDS011;8917;50.942;6.946;2023-09-18T07:46:24;5.18;;;2.03;;
17596;SDS011;8917;50.942;6.946;2023-09-18T07:48:51;3.35;;;1.85;;
17596;SDS011;8917;50.942;6.946;2023-09-18T07:51:19;5.38;;;2.40;;
17596;SDS011;8917;50.942;6.946;2023-09-18T07:53:46;5.28;;;2.10;;
17596;SDS011;8917;50.942;6.946;2023-09-18T07:56:13;8.85;;;1.90;;
17596;SDS011;8917;50.942;6.946;2023-09-18T07:58:40;4.95;;;2.20;;
17596;SDS011;8917;50.942;6.946;2023-09-18T08:01:08;4.80;;;2.20;;
17596;SDS011;8917;50.942;6.946;2023-09-18T08:03:35;3.50;;;1.98;;
17596;SDS011;8917;50.942;6.946;2023-09-18T08:06:03;3.08;;;2.10;;
17596;SDS011;8917;50.942;6.946;2023-09-18T08:08:30;5.75;;;2.10;;
17596;SDS011;8917;50.942;6.946;2023-09-18T08:11:00;3.00;;;1.80;;
17596;SDS011;8917;50.942;6.946;2023-09-18T08:13:34;2.55;;;1.90;;
17596;SDS011;8917;50.942;6.946;2023-09-18T08:16:01;3.20;;;1.70;;
17596;SDS011;8917;50.942;6.946;2023-09-18T08:18:30;3.22;;;1.50;;
17596;SDS011;8917;50.942;6.946;2023-09-18T08:20:57;3.20;;;1.83;;
17596;SDS011;8917;50.942;6.946;2023-09-18T08:23:27;1.90;;;1.60;;
17596;SDS011;8917;50.942;6.946;2023-09-18T08:25:56;4.85;;;1.88;;
17596;SDS011;8917;50.942;6.946;2023-09-18T08:28:23;3.75;;;1.90;;
17596;SDS011;8917;50.942;6.946;2023-09-18T08:30:50;4.70;;;2.08;;
17596;SDS011;8917;50.942;6.946;2023-09-18T08:33:17;5.38;;;1.90;;
17596;SDS011;8917;50.942;6.946;2023-09-18T08:35:45;4.82;;;2.28;;
17596;SDS011;8917;50.942;6.946;2023-09-18T08:38:14;3.75;;;1.77;;
17596;SDS011;8917;50.942;6.946;2023-09-18T08:40:41;3.38;;;1.85;;
17596;SDS011;8917;50.942;6.946;2023-09-18T08:43:09;7.88;;;2.33;;
17596;SDS011;8917;50.942;6.946;2023-09-18T08:45:40;3.85;;;1.88;;
17596;SDS011;8917;50.942;6.946;2023-09-18T08:48:13;5.97;;;2.20;;
17596;SDS011;8917;50.942;6.946;2023-09-18T08:50:40;4.85;;;2.22;;
17596;SDS011;8917;50.942;6.946;2023-09-18T08:53:10;6.50;;;2.10;;
17596;SDS011;8917;50.942;6.946;2023-09-18T08:55:37;3.10;;;1.83;;
17596;SDS011;8917;50.942;6.946;2023-09-18T08:58:06;3.38;;;2.03;;
17596;SDS011;8917;50.942;6.946;2023-09-18T09:00:33;4.72;;;1.90;;
17596;SDS011;8917;50.942;6.946;2023-09-18T09:03:00;5.85;;;2.00;;
17596;SDS011;8917;50.942;6.946;2023-09-18T09:05:27;6.85;;;2.03;;
17596;SDS011;8917;50.942;6.946;2023-09-18T09:07:54;3.13;;;1.95;;
17596;SDS011;8917;50.942;6.946;2023-09-18T09:10:23;2.78;;;1.70;;
17596;SDS011;8917;50.942;6.946;2023-09-18T09:12:54;5.18;;;1.85;;
17596;SDS011;8917;50.942;6.946;2023-09-18T09:15:22;8.90;;;2.60;;
17596;SDS011;8917;50.942;6.946;2023-09-18T09:17:51;5.20;;;2.00;;
17596;SDS011;8917;50.942;6.946;2023-09-18T09:20:19;4.75;;;1.92;;
17596;SDS011;8917;50.942;6.946;2023-09-18T09:22:46;6.13;;;2.75;;
17596;SDS011;8917;50.942;6.946;2023-09-18T09:25:24;3.85;;;1.83;;
17596;SDS011;8917;50.942;6.946;2023-09-18T09:27:52;5.72;;;1.98;;
17596;SDS011;8917;50.942;6.946;2023-09-18T09:30:20;5.40;;;1.95;;
17596;SDS011;8917;50.942;6.946;2023-09-18T09:32:48;2.65;;;1.88;;
17596;SDS011;8917;50.942;6.946;2023-09-18T09:35:21;7.88;;;2.25;;
17596;SDS011;8917;50.942;6.946;2023-09-18T09:37:49;3.75;;;1.98;;
17596;SDS011;8917;50.942;6.946;2023-09-18T09:40:18;5.45;;;2.20;;
17596;SDS011;8917;50.942;6.946;2023-09-18T09:42:47;4.20;;;1.75;;
17596;SDS011;8917;50.942;6.946;2023-09-18T09:45:18;5.35;;;2.20;;
17596;SDS011;8917;50.942;6.946;2023-09-18T09:47:46;5.20;;;2.22;;
17596;SDS011;8917;50.942;6.946;2023-09-18T09:50:14;4.93;;;2.50;;
17596;SDS011;8917;50.942;6.946;2023-09-18T09:52:44;4.40;;;2.20;;
17596;SDS011;8917;50.942;6.946;2023-09-18T09:55:18;3.97;;;1.88;;
17596;SDS011;8917;50.942;6.946;2023-09-18T09:57:48;2.45;;;1.60;;
17596;SDS011;8917;50.942;6.946;2023-09-18T10:00:17;3.35;;;1.85;;
17596;SDS011;8917;50.942;6.946;2023-09-18T10:02:55;6.22;;;2.17;;
17596;SDS011;8917;50.942;6.946;2023-09-18T10:05:24;4.45;;;1.80;;
17596;SDS011;8917;50.942;6.946;2023-09-18T10:07:57;3.15;;;1.80;;
17596;SDS011;8917;50.942;6.946;2023-09-18T10:10:27;2.83;;;1.90;;
17596;SDS011;8917;50.942;6.946;2023-09-18T10:12:59;4.40;;;2.25;;
17596;SDS011;8917;50.942;6.946;2023-09-18T10:15:29;7.28;;;2.15;;
17596;SDS011;8917;50.942;6.946;2023-09-18T10:18:03;2.72;;;1.73;;
17596;SDS011;8917;50.942;6.946;2023-09-18T10:20:37;5.88;;;2.40;;
17596;SDS011;8917;50.942;6.946;2023-09-18T10:23:10;4.72;;;2.20;;
17596;SDS011;8917;50.942;6.946;2023-09-18T10:25:48;6.40;;;2.38;;
17596;SDS011;8917;50.942;6.946;2023-09-18T10:28:23;3.67;;;1.95;;
17596;SDS011;8917;50.942;6.946;2023-09-18T10:30:53;3.67;;;1.90;;
17596;SDS011;8917;50.942;6.946;2023-09-18T10:33:24;3.78;;;2.42;;
17596;SDS011;8917;50.942;6.946;2023-09-18T10:35:52;2.25;;;2.00;;
17596;SDS011;8917;50.942;6.946;2023-09-18T10:38:19;3.85;;;1.88;;
17596;SDS011;8917;50.942;6.946;2023-09-18T10:40:47;3.63;;;1.95;;
17596;SDS011;8917;50.942;6.946;2023-09-18T10:43:15;5.07;;;2.10;;
17596;SDS011;8917;50.942;6.946;2023-09-18T10:45:44;5.57;;;1.83;;
17596;SDS011;8917;50.942;6.946;2023-09-18T10:48:13;3.90;;;1.73;;
17596;SDS011;8917;50.942;6.946;2023-09-18T10:50:41;6.53;;;2.60;;
17596;SDS011;8917;50.942;6.946;2023-09-18T10:53:10;3.28;;;1.90;;
17596;SDS011;8917;50.942;6.946;2023-09-18T10:55:38;4.32;;;1.90;;
17596;SDS011;8917;50.942;6.946;2023-09-18T10:58:05;4.10;;;1.77;;
17596;SDS011;8917;50.942;6.946;2023-09-18T11:00:32;3.70;;;1.98;;
17596;SDS011;8917;50.942;6.946;2023-09-18T11:03:12;3.45;;;1.83;;
17596;SDS011;8917;50.942;6.946;2023-09-18T11:05:42;1.60;;;1.50;;
17596;SDS011;8917;50.942;6.946;2023-09-18T11:08:27;2.95;;;1.70;;
17596;SDS011;8917;50.942;6.946;2023-09-18T11:10:55;4.40;;;1.88;;
17596;SDS011;8917;50.942;6.946;2023-09-18T11:13:30;3.17;;;1.88;;
17596;SDS011;8917;50.942;6.946;2023-09-18T11:16:12;6.80;;;1.95;;
17596;SDS011;8917;50.942;6.946;2023-09-18T11:18:43;8.65;;;2.05;;
17596;SDS011;8917;50.942;6.946;2023-09-18T11:21:14;5.22;;;2.13;;
17596;SDS011;8917;50.942;6.946;2023-09-18T11:23:42;6.13;;;2.00;;
17596;SDS011;8917;50.942;6.946;2023-09-18T11:26:10;11.07;;;2.20;;
17596;SDS011;8917;50.942;6.946;2023-09-18T11:28:38;4.88;;;1.75;;
17596;SDS011;8917;50.942;6.946;2023-09-18T11:31:07;4.72;;;1.80;;
17596;SDS011;8917;50.942;6.946;2023-09-18T11:33:37;4.03;;;1.80;;
17596;SDS011;8917;50.942;6.946;2023-09-18T11:36:06;4.28;;;1.95;;
17596;SDS011;8917;50.942;6.946;2023-09-18T11:38:50;4.70;;;1.75;;
17596;SDS011;8917;50.942;6.946;2023-09-18T11:41:22;6.20;;;2.10;;
17596;SDS011;8917;50.942;6.946;2023-09-18T11:43:51;6.13;;;2.60;;
17596;SDS011;8917;50.942;6.946;2023-09-18T11:46:19;2.65;;;1.67;;
17596;SDS011;8917;50.942;6.946;2023-09-18T11:48:47;2.65;;;1.52;;
17596;SDS011;8917;50.942;6.946;2023-09-18T11:51:24;6.95;;;2.00;;
17596;SDS011;8917;50.942;6.946;2023-09-18T11:53:52;4.97;;;2.03;;
17596;SDS011;8917;50.942;6.946;2023-09-18T11:56:21;2.92;;;1.90;;
17596;SDS011;8917;50.942;6.946;2023-09-18T11:58:48;3.63;;;1.73;;
17596;SDS011;8917;50.942;6.946;2023-09-18T12:01:17;3.85;;;1.90;;
17596;SDS011;8917;50.942;6.946;2023-09-18T12:03:44;4.28;;;1.80;;
17596;SDS011;8917;50.942;6.946;2023-09-18T12:06:12;5.57;;;2.38;;
17596;SDS011;8917;50.942;6.946;2023-09-18T12:08:41;4.93;;;1.80;;
17596;SDS011;8917;50.942;6.946;2023-09-18T12:11:08;5.38;;;2.40;;
17596;SDS011;8917;50.942;6.946;2023-09-18T12:13:34;3.67;;;2.03;;
17596;SDS011;8917;50.942;6.946;2023-09-18T12:16:02;8.73;;;2.30;;
17596;SDS011;8917;50.942;6.946;2023-09-18T12:18:31;4.63;;;2.05;;
17596;SDS011;8917;50.942;6.946;2023-09-18T12:21:05;9.25;;;2.70;;
17596;SDS011;8917;50.942;6.946;2023-09-18T12:23:40;3.55;;;2.00;;
17596;SDS011;8917;50.942;6.946;2023-09-18T12:26:09;2.42;;;1.60;;
17596;SDS011;8917;50.942;6.946;2023-09-18T12:28:38;5.43;;;1.90;;
17596;SDS011;8917;50.942;6.946;2023-09-18T12:31:06;3.88;;;1.85;;
17596;SDS011;8917;50.942;6.946;2023-09-18T12:33:36;8.05;;;2.20;;
17596;SDS011;8917;50.942;6.946;2023-09-18T12:36:04;8.05;;;2.40;;
17596;SDS011;8917;50.942;6.946;2023-09-18T12:38:32;8.15;;;2.40;;
17596;SDS011;8917;50.942;6.946;2023-09-18T12:41:00;2.00;;;1.80;;
17596;SDS011;8917;50.942;6.946;2023-09-18T12:43:33;5.47;;;2.10;;
17596;SDS011;8917;50.942;6.946;2023-09-18T12:46:01;5.90;;;1.90;;
17596;SDS011;8917;50.942;6.946;2023-09-18T12:48:30;3.50;;;1.70;;
17596;SDS011;8917;50.942;6.946;2023-09-18T12:51:01;4.93;;;2.15;;
17596;SDS011;8917;50.942;6.946;2023-09-18T12:53:30;3.10;;;1.95;;
17596;SDS011;8917;50.942;6.946;2023-09-18T12:56:05;4.53;;;2.17;;
17596;SDS011;8917;50.942;6.946;2023-09-18T12:58:33;4.43;;;1.83;;
17596;SDS011;8917;50.942;6.946;2023-09-18T13:01:03;4.80;;;2.10;;
17596;SDS011;8917;50.942;6.946;2023-09-18T13:03:34;4.32;;;2.28;;
17596;SDS011;8917;50.942;6.946;2023-09-18T13:06:11;13.77;;;2.50;;
17596;SDS011;8917;50.942;6.946;2023-09-18T13:08:42;3.80;;;1.80;;
17596;SDS011;8917;50.942;6.946;2023-09-18T13:11:11;5.47;;;1.85;;
17596;SDS011;8917;50.942;6.946;2023-09-18T13:13:39;3.55;;;2.10;;
17596;SDS011;8917;50.942;6.946;2023-09-18T13:16:07;4.00;;;1.90;;
17596;SDS011;8917;50.942;6.946;2023-09-18T13:18:35;4.55;;;1.80;;
17596;SDS011;8917;50.942;6.946;2023-09-18T13:21:08;2.58;;;1.98;;
17596;SDS011;8917;50.942;6.946;2023-09-18T13:23:36;1.95;;;1.67;;
17596;SDS011;8917;50.942;6.946;2023-09-18T13:26:04;2.40;;;1.58;;
17596;SDS011;8917;50.942;6.946;2023-09-18T13:28:35;2.50;;;1.60;;
17596;SDS011;8917;50.942;6.946;2023-09-18T13:31:05;5.05;;;2.10;;
17596;SDS011;8917;50.942;6.946;2023-09-18T13:33:32;2.28;;;1.58;;
17596;SDS011;8917;50.942;6.946;2023-09-18T13:36:00;3.55;;;2.10;;
17596;SDS011;8917;50.942;6.946;2023-09-18T13:38:26;2.45;;;1.80;;
17596;SDS011;8917;50.942;6.946;2023-09-18T13:40:53;3.65;;;1.70;;
17596;SDS011;8917;50.942;6.946;2023-09-18T13:43:21;3.15;;;1.75;;
17596;SDS011;8917;50.942;6.946;2023-09-18T13:45:49;1.75;;;1.65;;
17596;SDS011;8917;50.942;6.946;2023-09-18T13:48:17;2.47;;;1.70;;
17596;SDS011;8917;50.942;6.946;2023-09-18T13:50:45;4.07;;;1.95;;
17596;SDS011;8917;50.942;6.946;2023-09-18T13:53:13;4.25;;;1.63;;
17596;SDS011;8917;50.942;6.946;2023-09-18T13:55:40;3.33;;;1.90;;
17596;SDS011;8917;50.942;6.946;2023-09-18T13:58:07;3.40;;;1.95;;
17596;SDS011;8917;50.942;6.946;2023-09-18T14:00:34;4.38;;;2.00;;
17596;SDS011;8917;50.942;6.946;2023-09-18T14:03:03;3.80;;;2.00;;
17596;SDS011;8917;50.942;6.946;2023-09-18T14:05:30;3.60;;;1.50;;
17596;SDS011;8917;50.942;6.946;2023-09-18T14:07:59;2.63;;;1.70;;
17596;SDS011;8917;50.942;6.946;2023-09-18T14:10:26;2.08;;;1.63;;
17596;SDS011;8917;50.942;6.946;2023-09-18T14:12:53;2.15;;;1.83;;
17596;SDS011;8917;50.942;6.946;2023-09-18T14:15:20;2.55;;;1.63;;
17596;SDS011;8917;50.942;6.946;2023-09-18T14:17:47;3.33;;;1.90;;
17596;SDS011;8917;50.942;6.946;2023-09-18T14:20:16;4.18;;;2.22;;
17596;SDS011;8917;50.942;6.946;2023-09-18T14:22:44;2.03;;;1.90;;
17596;SDS011;8917;50.942;6.946;2023-09-18T14:25:14;2.47;;;2.20;;
17596;SDS011;8917;50.942;6.946;2023-09-18T14:27:42;4.93;;;2.03;;
17596;SDS011;8917;50.942;6.946;2023-09-18T14:30:09;1.83;;;1.73;;
17596;SDS011;8917;50.942;6.946;2023-09-18T14:32:38;3.90;;;2.15;;
17596;SDS011;8917;50.942;6.946;2023-09-18T14:35:06;2.70;;;2.00;;
17596;SDS011;8917;50.942;6.946;2023-09-18T14:37:35;3.05;;;1.77;;
17596;SDS011;8917;50.942;6.946;2023-09-18T14:40:03;3.35;;;1.75;;
17596;SDS011;8917;50.942;6.946;2023-09-18T14:42:32;3.17;;;1.90;;
17596;SDS011;8917;50.942;6.946;2023-09-18T14:44:59;2.28;;;1.70;;
17596;SDS011;8917;50.942;6.946;2023-09-18T14:47:26;2.10;;;1.80;;
17596;SDS011;8917;50.942;6.946;2023-09-18T14:49:53;3.17;;;1.80;;
17596;SDS011;8917;50.942;6.946;2023-09-18T14:52:20;2.05;;;1.48;;
17596;SDS011;8917;50.942;6.946;2023-09-18T14:54:51;2.97;;;1.73;;
17596;SDS011;8917;50.942;6.946;2023-09-18T14:57:18;1.98;;;1.67;;
17596;SDS011;8917;50.942;6.946;2023-09-18T14:59:45;3.58;;;1.90;;
17596;SDS011;8917;50.942;6.946;2023-09-18T15:02:13;2.60;;;2.10;;
17596;SDS011;8917;50.942;6.946;2023-09-18T15:04:41;3.17;;;1.70;;
17596;SDS011;8917;50.942;6.946;2023-09-18T15:07:10;3.78;;;1.60;;